sensor_id;sensor_type;location;lat;lon;timestamp;P1;durP1;ratioP1;P2;durP2;ratioP2
39996;SDS011;25688;52.338;21.072;2024-02-21T01:27:16;17.77;;;5.65;;
39996;SDS011;25688;52.338;21.072;2024-02-21T01:29:42;15.00;;;6.57;;
39996;SDS011;25688;52.338;21.072;2024-02-21T01:32:08;22.42;;;6.63;;
39996;SDS011;25688;52.338;21.072;2024-02-21T01:34:33;23.63;;;6.72;;
39996;SDS011;25688;52.338;21.072;2024-02-21T01:36:59;21.60;;;7.40;;
39996;SDS011;25688;52.338;21.072;2024-02-21T01:39:29;23.52;;;6.85;;
39996;SDS011;25688;52.338;21.072;2024-02-21T01:41:55;20.15;;;7.15;;
39996;SDS011;25688;52.338;21.072;2024-02-21T01:44:21;23.52;;;10.18;;
39996;SDS011;25688;52.338;21.072;2024-02-21T01:46:46;21.92;;;8.75;;
39996;SDS011;25688;52.338;21.072;2024-02-21T01:49:12;25.88;;;9.82;;
39996;SDS011;25688;52.338;21.072;2024-02-21T01:51:38;23.42;;;8.25;;
39996;SDS011;25688;52.338;21.072;2024-02-21T01:54:05;28.02;;;10.38;;
39996;SDS011;25688;52.338;21.072;2024-02-21T01:56:31;19.33;;;9.65;;
39996;SDS011;25688;52.338;21.072;2024-02-21T01:58:57;26.70;;;8.77;;
39996;SDS011;25688;52.338;21.072;2024-02-21T02:01:23;25.63;;;9.65;;
39996;SDS011;25688;52.338;21.072;2024-02-21T02:03:50;25.95;;;9.00;;
39996;SDS011;25688;52.338;21.072;2024-02-21T02:06:17;21.10;;;9.55;;
39996;SDS011;25688;52.338;21.072;2024-02-21T02:08:43;24.30;;;9.50;;
39996;SDS011;25688;52.338;21.072;2024-02-21T02:11:09;24.58;;;10.57;;
39996;SDS011;25688;52.338;21.072;2024-02-21T02:13:38;28.13;;;9.57;;
39996;SDS011;25688;52.338;21.072;2024-02-21T02:16:04;26.23;;;10.32;;
39996;SDS011;25688;52.338;21.072;2024-02-21T02:18:30;28.40;;;10.85;;
39996;SDS011;25688;52.338;21.072;2024-02-21T02:20:56;28.83;;;10.48;;
39996;SDS011;25688;52.338;21.072;2024-02-21T02:23:29;30.20;;;11.77;;
39996;SDS011;25688;52.338;21.072;2024-02-21T02:25:56;27.95;;;10.85;;
39996;SDS011;25688;52.338;21.072;2024-02-21T02:28:22;35.65;;;13.23;;
39996;SDS011;25688;52.338;21.072;2024-02-21T02:30:48;28.00;;;11.25;;
39996;SDS011;25688;52.338;21.072;2024-02-21T02:33:14;32.42;;;12.63;;
39996;SDS011;25688;52.338;21.072;2024-02-21T02:35:42;25.83;;;10.77;;
39996;SDS011;25688;52.338;21.072;2024-02-21T02:38:08;29.02;;;11.63;;
39996;SDS011;25688;52.338;21.072;2024-02-21T02:40:34;30.05;;;11.50;;
39996;SDS011;25688;52.338;21.072;2024-02-21T02:43:01;30.48;;;12.32;;
39996;SDS011;25688;52.338;21.072;2024-02-21T02:45:27;29.63;;;12.10;;
39996;SDS011;25688;52.338;21.072;2024-02-21T02:47:53;29.52;;;12.57;;
39996;SDS011;25688;52.338;21.072;2024-02-21T02:50:25;31.00;;;13.63;;
39996;SDS011;25688;52.338;21.072;2024-02-21T02:52:52;32.95;;;13.23;;
39996;SDS011;25688;52.338;21.072;2024-02-21T02:55:19;28.80;;;12.45;;
39996;SDS011;25688;52.338;21.072;2024-02-21T02:57:45;37.03;;;13.50;;
39996;SDS011;25688;52.338;21.072;2024-02-21T03:00:11;28.10;;;12.63;;
39996;SDS011;25688;52.338;21.072;2024-02-21T03:02:38;36.22;;;13.85;;
39996;SDS011;25688;52.338;21.072;2024-02-21T03:05:11;34.70;;;13.73;;
39996;SDS011;25688;52.338;21.072;2024-02-21T03:07:41;30.13;;;12.77;;
39996;SDS011;25688;52.338;21.072;2024-02-21T03:10:07;29.70;;;12.25;;
39996;SDS011;25688;52.338;21.072;2024-02-21T03:12:33;37.15;;;12.57;;
39996;SDS011;25688;52.338;21.072;2024-02-21T03:14:59;28.10;;;12.48;;
39996;SDS011;25688;52.338;21.072;2024-02-21T03:17:25;33.65;;;13.70;;
39996;SDS011;25688;52.338;21.072;2024-02-21T03:19:54;31.17;;;12.35;;
39996;SDS011;25688;52.338;21.072;2024-02-21T03:22:21;29.60;;;12.52;;
39996;SDS011;25688;52.338;21.072;2024-02-21T03:24:47;33.80;;;13.52;;
39996;SDS011;25688;52.338;21.072;2024-02-21T03:27:13;34.67;;;13.02;;
39996;SDS011;25688;52.338;21.072;2024-02-21T03:29:38;38.42;;;14.40;;
39996;SDS011;25688;52.338;21.072;2024-02-21T03:32:04;34.58;;;13.25;;
39996;SDS011;25688;52.338;21.072;2024-02-21T03:34:30;29.85;;;12.90;;
39996;SDS011;25688;52.338;21.072;2024-02-21T03:36:56;41.55;;;14.23;;
39996;SDS011;25688;52.338;21.072;2024-02-21T03:39:22;30.85;;;13.27;;
39996;SDS011;25688;52.338;21.072;2024-02-21T03:41:48;31.20;;;13.38;;
39996;SDS011;25688;52.338;21.072;2024-02-21T03:44:14;32.17;;;14.25;;
39996;SDS011;25688;52.338;21.072;2024-02-21T03:46:39;40.03;;;15.35;;
39996;SDS011;25688;52.338;21.072;2024-02-21T03:49:06;33.58;;;12.98;;
39996;SDS011;25688;52.338;21.072;2024-02-21T03:51:32;34.47;;;14.10;;
39996;SDS011;25688;52.338;21.072;2024-02-21T03:53:57;41.40;;;13.65;;
39996;SDS011;25688;52.338;21.072;2024-02-21T03:56:23;40.25;;;14.25;;
39996;SDS011;25688;52.338;21.072;2024-02-21T03:58:49;31.85;;;13.13;;
39996;SDS011;25688;52.338;21.072;2024-02-21T04:01:15;34.70;;;14.77;;
39996;SDS011;25688;52.338;21.072;2024-02-21T04:03:42;32.22;;;13.18;;
39996;SDS011;25688;52.338;21.072;2024-02-21T04:06:09;38.42;;;14.15;;
39996;SDS011;25688;52.338;21.072;2024-02-21T04:08:35;37.08;;;14.75;;
39996;SDS011;25688;52.338;21.072;2024-02-21T04:11:01;39.75;;;12.95;;
39996;SDS011;25688;52.338;21.072;2024-02-21T04:13:26;38.00;;;13.52;;
39996;SDS011;25688;52.338;21.072;2024-02-21T04:15:52;30.23;;;13.40;;
39996;SDS011;25688;52.338;21.072;2024-02-21T04:18:18;36.60;;;14.10;;
39996;SDS011;25688;52.338;21.072;2024-02-21T04:20:44;34.53;;;13.98;;
39996;SDS011;25688;52.338;21.072;2024-02-21T04:23:10;36.80;;;13.73;;
39996;SDS011;25688;52.338;21.072;2024-02-21T04:25:36;35.80;;;13.05;;
39996;SDS011;25688;52.338;21.072;2024-02-21T04:28:02;32.10;;;12.50;;
39996;SDS011;25688;52.338;21.072;2024-02-21T04:30:28;36.30;;;14.13;;
39996;SDS011;25688;52.338;21.072;2024-02-21T04:32:54;38.17;;;15.05;;
39996;SDS011;25688;52.338;21.072;2024-02-21T04:35:19;44.33;;;15.15;;
39996;SDS011;25688;52.338;21.072;2024-02-21T04:37:45;37.97;;;15.18;;
39996;SDS011;25688;52.338;21.072;2024-02-21T04:40:11;38.30;;;16.92;;
39996;SDS011;25688;52.338;21.072;2024-02-21T04:42:39;41.58;;;15.38;;
39996;SDS011;25688;52.338;21.072;2024-02-21T04:45:05;40.67;;;16.60;;
39996;SDS011;25688;52.338;21.072;2024-02-21T04:47:31;44.17;;;17.08;;
39996;SDS011;25688;52.338;21.072;2024-02-21T04:49:57;49.13;;;17.20;;
39996;SDS011;25688;52.338;21.072;2024-02-21T04:52:22;39.70;;;16.73;;
39996;SDS011;25688;52.338;21.072;2024-02-21T04:54:48;51.67;;;17.50;;
39996;SDS011;25688;52.338;21.072;2024-02-21T04:57:14;46.88;;;17.27;;
39996;SDS011;25688;52.338;21.072;2024-02-21T04:59:45;44.90;;;17.25;;
39996;SDS011;25688;52.338;21.072;2024-02-21T05:02:12;47.15;;;17.73;;
39996;SDS011;25688;52.338;21.072;2024-02-21T05:04:38;42.63;;;17.33;;
39996;SDS011;25688;52.338;21.072;2024-02-21T05:07:06;46.28;;;20.67;;
39996;SDS011;25688;52.338;21.072;2024-02-21T05:09:32;47.75;;;17.42;;
39996;SDS011;25688;52.338;21.072;2024-02-21T05:11:58;48.40;;;18.90;;
39996;SDS011;25688;52.338;21.072;2024-02-21T05:14:26;43.35;;;18.38;;
39996;SDS011;25688;52.338;21.072;2024-02-21T05:16:52;43.20;;;18.02;;
39996;SDS011;25688;52.338;21.072;2024-02-21T05:19:18;46.30;;;18.58;;
39996;SDS011;25688;52.338;21.072;2024-02-21T05:21:44;46.72;;;18.88;;
39996;SDS011;25688;52.338;21.072;2024-02-21T05:24:10;48.90;;;19.50;;
39996;SDS011;25688;52.338;21.072;2024-02-21T05:26:36;49.67;;;19.42;;
39996;SDS011;25688;52.338;21.072;2024-02-21T05:29:02;45.80;;;18.08;;
39996;SDS011;25688;52.338;21.072;2024-02-21T05:34:18;64.13;;;20.88;;
39996;SDS011;25688;52.338;21.072;2024-02-21T05:36:44;51.72;;;19.75;;
39996;SDS011;25688;52.338;21.072;2024-02-21T05:39:11;56.83;;;20.05;;
39996;SDS011;25688;52.338;21.072;2024-02-21T05:41:40;50.22;;;19.10;;
39996;SDS011;25688;52.338;21.072;2024-02-21T05:44:05;59.70;;;18.58;;
39996;SDS011;25688;52.338;21.072;2024-02-21T05:46:31;54.25;;;21.05;;
39996;SDS011;25688;52.338;21.072;2024-02-21T05:48:57;52.17;;;20.75;;
39996;SDS011;25688;52.338;21.072;2024-02-21T05:51:23;57.30;;;21.67;;
39996;SDS011;25688;52.338;21.072;2024-02-21T05:53:48;59.50;;;22.23;;
39996;SDS011;25688;52.338;21.072;2024-02-21T05:56:14;56.35;;;22.33;;
39996;SDS011;25688;52.338;21.072;2024-02-21T05:58:40;56.70;;;20.38;;
39996;SDS011;25688;52.338;21.072;2024-02-21T06:01:06;61.30;;;22.25;;
39996;SDS011;25688;52.338;21.072;2024-02-21T06:03:33;56.63;;;20.70;;
39996;SDS011;25688;52.338;21.072;2024-02-21T06:05:59;58.75;;;21.67;;
39996;SDS011;25688;52.338;21.072;2024-02-21T06:08:26;55.45;;;21.63;;
39996;SDS011;25688;52.338;21.072;2024-02-21T06:10:51;50.10;;;20.38;;
39996;SDS011;25688;52.338;21.072;2024-02-21T06:13:28;61.88;;;21.50;;
39996;SDS011;25688;52.338;21.072;2024-02-21T06:15:54;62.08;;;24.85;;
39996;SDS011;25688;52.338;21.072;2024-02-21T06:18:20;59.08;;;22.95;;
39996;SDS011;25688;52.338;21.072;2024-02-21T06:20:46;56.75;;;21.15;;
39996;SDS011;25688;52.338;21.072;2024-02-21T06:23:15;61.47;;;21.27;;
39996;SDS011;25688;52.338;21.072;2024-02-21T06:25:42;57.53;;;20.33;;
39996;SDS011;25688;52.338;21.072;2024-02-21T06:28:08;53.63;;;22.00;;
39996;SDS011;25688;52.338;21.072;2024-02-21T06:30:34;48.97;;;21.60;;
39996;SDS011;25688;52.338;21.072;2024-02-21T06:33:00;56.05;;;21.60;;
39996;SDS011;25688;52.338;21.072;2024-02-21T06:35:27;69.40;;;23.95;;
39996;SDS011;25688;52.338;21.072;2024-02-21T06:37:53;52.00;;;22.23;;
39996;SDS011;25688;52.338;21.072;2024-02-21T06:40:23;55.72;;;21.23;;
39996;SDS011;25688;52.338;21.072;2024-02-21T06:42:52;65.57;;;21.95;;
39996;SDS011;25688;52.338;21.072;2024-02-21T06:45:17;55.20;;;22.25;;
39996;SDS011;25688;52.338;21.072;2024-02-21T06:47:43;55.33;;;21.42;;
39996;SDS011;25688;52.338;21.072;2024-02-21T06:50:09;53.45;;;21.70;;
39996;SDS011;25688;52.338;21.072;2024-02-21T06:52:36;53.83;;;21.02;;
39996;SDS011;25688;52.338;21.072;2024-02-21T06:55:02;54.03;;;21.48;;
39996;SDS011;25688;52.338;21.072;2024-02-21T06:57:28;50.05;;;21.85;;
39996;SDS011;25688;52.338;21.072;2024-02-21T06:59:54;58.70;;;22.08;;
39996;SDS011;25688;52.338;21.072;2024-02-21T07:02:20;50.22;;;21.10;;
39996;SDS011;25688;52.338;21.072;2024-02-21T07:04:46;61.78;;;22.88;;
39996;SDS011;25688;52.338;21.072;2024-02-21T07:07:12;55.53;;;22.38;;
39996;SDS011;25688;52.338;21.072;2024-02-21T07:09:38;52.17;;;22.60;;
39996;SDS011;25688;52.338;21.072;2024-02-21T07:12:04;53.13;;;21.88;;
39996;SDS011;25688;52.338;21.072;2024-02-21T07:14:31;52.50;;;22.80;;
39996;SDS011;25688;52.338;21.072;2024-02-21T07:16:58;57.33;;;21.85;;
39996;SDS011;25688;52.338;21.072;2024-02-21T07:19:23;58.42;;;22.50;;
39996;SDS011;25688;52.338;21.072;2024-02-21T07:21:49;53.05;;;22.13;;
39996;SDS011;25688;52.338;21.072;2024-02-21T07:24:15;51.28;;;22.33;;
39996;SDS011;25688;52.338;21.072;2024-02-21T07:26:41;68.00;;;21.35;;
39996;SDS011;25688;52.338;21.072;2024-02-21T07:29:08;64.57;;;23.75;;
39996;SDS011;25688;52.338;21.072;2024-02-21T07:31:38;56.40;;;22.38;;
39996;SDS011;25688;52.338;21.072;2024-02-21T07:34:08;55.47;;;22.17;;
39996;SDS011;25688;52.338;21.072;2024-02-21T07:36:34;50.47;;;20.92;;
39996;SDS011;25688;52.338;21.072;2024-02-21T07:39:00;54.90;;;20.70;;
39996;SDS011;25688;52.338;21.072;2024-02-21T07:41:26;51.15;;;19.88;;
39996;SDS011;25688;52.338;21.072;2024-02-21T07:43:51;56.20;;;20.48;;
39996;SDS011;25688;52.338;21.072;2024-02-21T07:46:18;44.42;;;19.90;;
39996;SDS011;25688;52.338;21.072;2024-02-21T07:48:46;53.40;;;20.05;;
39996;SDS011;25688;52.338;21.072;2024-02-21T07:51:13;60.08;;;21.13;;
39996;SDS011;25688;52.338;21.072;2024-02-21T07:53:39;51.97;;;19.05;;
39996;SDS011;25688;52.338;21.072;2024-02-21T07:56:12;52.20;;;19.67;;
39996;SDS011;25688;52.338;21.072;2024-02-21T07:58:39;47.20;;;17.58;;
39996;SDS011;25688;52.338;21.072;2024-02-21T08:01:05;50.10;;;17.58;;
39996;SDS011;25688;52.338;21.072;2024-02-21T08:03:31;52.97;;;19.60;;
39996;SDS011;25688;52.338;21.072;2024-02-21T08:05:57;55.75;;;18.52;;
39996;SDS011;25688;52.338;21.072;2024-02-21T08:08:22;57.03;;;20.70;;
39996;SDS011;25688;52.338;21.072;2024-02-21T08:10:51;49.80;;;19.90;;
39996;SDS011;25688;52.338;21.072;2024-02-21T08:13:17;59.35;;;19.60;;
39996;SDS011;25688;52.338;21.072;2024-02-21T08:15:43;62.15;;;21.92;;
39996;SDS011;25688;52.338;21.072;2024-02-21T08:18:09;56.28;;;19.98;;
39996;SDS011;25688;52.338;21.072;2024-02-21T08:20:35;55.08;;;19.40;;
39996;SDS011;25688;52.338;21.072;2024-02-21T08:23:01;67.53;;;20.48;;
39996;SDS011;25688;52.338;21.072;2024-02-21T08:25:26;58.47;;;21.02;;
39996;SDS011;25688;52.338;21.072;2024-02-21T08:27:57;67.00;;;19.90;;
39996;SDS011;25688;52.338;21.072;2024-02-21T08:30:24;48.67;;;18.10;;
39996;SDS011;25688;52.338;21.072;2024-02-21T08:32:49;56.33;;;19.58;;
39996;SDS011;25688;52.338;21.072;2024-02-21T08:35:15;47.42;;;18.65;;
39996;SDS011;25688;52.338;21.072;2024-02-21T08:37:43;45.45;;;18.67;;
39996;SDS011;25688;52.338;21.072;2024-02-21T08:40:12;54.05;;;20.13;;
39996;SDS011;25688;52.338;21.072;2024-02-21T08:42:41;53.75;;;20.52;;
39996;SDS011;25688;52.338;21.072;2024-02-21T08:45:07;56.67;;;20.92;;
39996;SDS011;25688;52.338;21.072;2024-02-21T08:47:33;53.72;;;20.48;;
39996;SDS011;25688;52.338;21.072;2024-02-21T08:50:01;53.75;;;19.08;;
39996;SDS011;25688;52.338;21.072;2024-02-21T08:52:27;45.38;;;19.38;;
39996;SDS011;25688;52.338;21.072;2024-02-21T08:54:53;51.35;;;20.83;;
39996;SDS011;25688;52.338;21.072;2024-02-21T08:57:19;54.15;;;20.40;;
39996;SDS011;25688;52.338;21.072;2024-02-21T08:59:44;59.85;;;22.00;;
39996;SDS011;25688;52.338;21.072;2024-02-21T09:02:12;53.47;;;21.52;;
39996;SDS011;25688;52.338;21.072;2024-02-21T09:04:39;49.45;;;20.90;;
39996;SDS011;25688;52.338;21.072;2024-02-21T09:07:04;51.42;;;20.55;;
39996;SDS011;25688;52.338;21.072;2024-02-21T09:09:30;47.05;;;19.27;;
39996;SDS011;25688;52.338;21.072;2024-02-21T09:11:58;46.00;;;17.50;;
39996;SDS011;25688;52.338;21.072;2024-02-21T09:14:31;46.55;;;20.98;;
39996;SDS011;25688;52.338;21.072;2024-02-21T09:16:57;52.53;;;19.30;;
39996;SDS011;25688;52.338;21.072;2024-02-21T09:19:22;47.55;;;19.45;;
39996;SDS011;25688;52.338;21.072;2024-02-21T09:21:48;51.30;;;20.33;;
39996;SDS011;25688;52.338;21.072;2024-02-21T09:24:14;54.72;;;19.65;;
39996;SDS011;25688;52.338;21.072;2024-02-21T09:26:40;47.10;;;18.58;;
39996;SDS011;25688;52.338;21.072;2024-02-21T09:29:06;40.10;;;17.90;;
39996;SDS011;25688;52.338;21.072;2024-02-21T09:31:31;49.60;;;18.70;;
39996;SDS011;25688;52.338;21.072;2024-02-21T09:33:57;51.00;;;18.42;;
39996;SDS011;25688;52.338;21.072;2024-02-21T09:36:23;43.53;;;18.02;;
39996;SDS011;25688;52.338;21.072;2024-02-21T09:38:49;43.35;;;18.17;;
39996;SDS011;25688;52.338;21.072;2024-02-21T09:41:15;39.70;;;19.10;;
39996;SDS011;25688;52.338;21.072;2024-02-21T09:43:43;44.72;;;19.05;;
39996;SDS011;25688;52.338;21.072;2024-02-21T09:46:16;41.58;;;18.90;;
39996;SDS011;25688;52.338;21.072;2024-02-21T09:51:44;45.65;;;18.08;;
39996;SDS011;25688;52.338;21.072;2024-02-21T09:54:11;48.03;;;18.20;;
39996;SDS011;25688;52.338;21.072;2024-02-21T09:56:36;44.42;;;17.75;;
39996;SDS011;25688;52.338;21.072;2024-02-21T09:59:03;43.08;;;17.67;;
39996;SDS011;25688;52.338;21.072;2024-02-21T10:01:30;43.25;;;16.83;;
39996;SDS011;25688;52.338;21.072;2024-02-21T10:03:57;39.08;;;16.02;;
39996;SDS011;25688;52.338;21.072;2024-02-21T10:06:23;39.00;;;17.88;;
39996;SDS011;25688;52.338;21.072;2024-02-21T10:08:52;47.70;;;17.05;;
39996;SDS011;25688;52.338;21.072;2024-02-21T10:11:22;42.35;;;16.20;;
39996;SDS011;25688;52.338;21.072;2024-02-21T10:13:51;45.97;;;15.93;;
39996;SDS011;25688;52.338;21.072;2024-02-21T10:16:31;34.80;;;14.65;;
39996;SDS011;25688;52.338;21.072;2024-02-21T10:18:58;41.63;;;15.70;;
39996;SDS011;25688;52.338;21.072;2024-02-21T10:21:24;43.03;;;15.93;;
39996;SDS011;25688;52.338;21.072;2024-02-21T10:23:50;34.97;;;14.82;;
39996;SDS011;25688;52.338;21.072;2024-02-21T10:26:19;40.80;;;15.25;;
39996;SDS011;25688;52.338;21.072;2024-02-21T10:28:46;39.97;;;15.20;;
39996;SDS011;25688;52.338;21.072;2024-02-21T10:31:26;37.05;;;14.05;;
39996;SDS011;25688;52.338;21.072;2024-02-21T10:34:01;39.60;;;16.13;;
39996;SDS011;25688;52.338;21.072;2024-02-21T10:36:30;43.15;;;17.67;;
39996;SDS011;25688;52.338;21.072;2024-02-21T10:38:56;37.60;;;15.77;;
39996;SDS011;25688;52.338;21.072;2024-02-21T10:41:23;45.78;;;16.13;;
39996;SDS011;25688;52.338;21.072;2024-02-21T10:43:50;44.45;;;16.33;;
39996;SDS011;25688;52.338;21.072;2024-02-21T10:46:20;36.13;;;14.48;;
39996;SDS011;25688;52.338;21.072;2024-02-21T10:49:01;35.72;;;15.60;;
39996;SDS011;25688;52.338;21.072;2024-02-21T10:51:47;44.72;;;15.38;;
39996;SDS011;25688;52.338;21.072;2024-02-21T10:56:51;42.40;;;18.42;;
39996;SDS011;25688;52.338;21.072;2024-02-21T10:59:18;41.55;;;18.90;;
39996;SDS011;25688;52.338;21.072;2024-02-21T11:01:45;45.08;;;17.45;;
39996;SDS011;25688;52.338;21.072;2024-02-21T11:04:11;41.13;;;16.70;;
39996;SDS011;25688;52.338;21.072;2024-02-21T11:06:37;42.13;;;18.55;;
39996;SDS011;25688;52.338;21.072;2024-02-21T11:09:06;40.50;;;16.92;;
39996;SDS011;25688;52.338;21.072;2024-02-21T11:11:37;34.35;;;16.60;;
39996;SDS011;25688;52.338;21.072;2024-02-21T11:14:05;40.83;;;17.40;;
39996;SDS011;25688;52.338;21.072;2024-02-21T11:16:36;42.53;;;18.13;;
39996;SDS011;25688;52.338;21.072;2024-02-21T11:19:18;43.97;;;20.13;;
39996;SDS011;25688;52.338;21.072;2024-02-21T11:21:45;36.13;;;17.55;;
39996;SDS011;25688;52.338;21.072;2024-02-21T11:24:13;39.70;;;18.67;;
39996;SDS011;25688;52.338;21.072;2024-02-21T11:26:39;39.20;;;17.90;;
39996;SDS011;25688;52.338;21.072;2024-02-21T11:29:07;40.35;;;17.77;;
39996;SDS011;25688;52.338;21.072;2024-02-21T11:31:41;41.25;;;16.98;;
39996;SDS011;25688;52.338;21.072;2024-02-21T11:34:09;47.53;;;19.40;;
39996;SDS011;25688;52.338;21.072;2024-02-21T11:36:35;46.25;;;19.70;;
39996;SDS011;25688;52.338;21.072;2024-02-21T11:39:11;43.63;;;20.08;;
39996;SDS011;25688;52.338;21.072;2024-02-21T11:41:36;43.33;;;19.05;;
39996;SDS011;25688;52.338;21.072;2024-02-21T11:44:02;52.03;;;20.30;;
39996;SDS011;25688;52.338;21.072;2024-02-21T11:46:29;52.60;;;22.25;;
39996;SDS011;25688;52.338;21.072;2024-02-21T11:48:54;65.88;;;24.40;;
39996;SDS011;25688;52.338;21.072;2024-02-21T11:51:22;55.85;;;23.52;;
39996;SDS011;25688;52.338;21.072;2024-02-21T11:53:51;59.05;;;24.48;;
39996;SDS011;25688;52.338;21.072;2024-02-21T11:56:18;58.03;;;23.90;;
39996;SDS011;25688;52.338;21.072;2024-02-21T11:58:45;55.63;;;22.17;;
39996;SDS011;25688;52.338;21.072;2024-02-21T12:01:12;55.88;;;22.10;;
39996;SDS011;25688;52.338;21.072;2024-02-21T12:03:39;52.53;;;23.17;;
39996;SDS011;25688;52.338;21.072;2024-02-21T12:06:06;55.88;;;23.27;;
39996;SDS011;25688;52.338;21.072;2024-02-21T12:08:42;55.63;;;23.17;;
39996;SDS011;25688;52.338;21.072;2024-02-21T12:11:21;47.95;;;21.80;;
39996;SDS011;25688;52.338;21.072;2024-02-21T12:13:57;58.67;;;23.05;;
39996;SDS011;25688;52.338;21.072;2024-02-21T12:16:33;51.42;;;23.52;;
39996;SDS011;25688;52.338;21.072;2024-02-21T12:18:59;50.80;;;22.08;;
39996;SDS011;25688;52.338;21.072;2024-02-21T12:21:32;64.28;;;25.73;;
39996;SDS011;25688;52.338;21.072;2024-02-21T12:24:14;62.25;;;26.02;;
39996;SDS011;25688;52.338;21.072;2024-02-21T12:26:58;49.63;;;22.65;;
39996;SDS011;25688;52.338;21.072;2024-02-21T12:29:25;54.30;;;24.73;;
39996;SDS011;25688;52.338;21.072;2024-02-21T12:31:51;55.70;;;23.67;;
39996;SDS011;25688;52.338;21.072;2024-02-21T12:34:17;54.30;;;24.23;;
39996;SDS011;25688;52.338;21.072;2024-02-21T12:36:43;56.88;;;22.17;;
39996;SDS011;25688;52.338;21.072;2024-02-21T12:39:10;51.83;;;23.17;;
39996;SDS011;25688;52.338;21.072;2024-02-21T12:41:36;56.45;;;25.10;;
39996;SDS011;25688;52.338;21.072;2024-02-21T12:44:12;55.08;;;24.52;;
39996;SDS011;25688;52.338;21.072;2024-02-21T12:46:38;53.63;;;24.13;;
39996;SDS011;25688;52.338;21.072;2024-02-21T12:49:07;48.75;;;23.88;;
39996;SDS011;25688;52.338;21.072;2024-02-21T12:51:33;48.45;;;23.50;;
39996;SDS011;25688;52.338;21.072;2024-02-21T12:53:59;52.13;;;24.20;;
39996;SDS011;25688;52.338;21.072;2024-02-21T12:56:26;54.17;;;23.35;;
39996;SDS011;25688;52.338;21.072;2024-02-21T12:58:56;45.28;;;22.52;;
39996;SDS011;25688;52.338;21.072;2024-02-21T13:01:22;52.63;;;23.35;;
39996;SDS011;25688;52.338;21.072;2024-02-21T13:03:48;44.28;;;21.35;;
39996;SDS011;25688;52.338;21.072;2024-02-21T13:06:14;40.42;;;20.77;;
39996;SDS011;25688;52.338;21.072;2024-02-21T13:08:39;42.67;;;19.83;;
39996;SDS011;25688;52.338;21.072;2024-02-21T13:11:06;42.15;;;18.77;;
39996;SDS011;25688;52.338;21.072;2024-02-21T13:13:32;44.50;;;19.67;;
39996;SDS011;25688;52.338;21.072;2024-02-21T13:15:58;40.78;;;18.13;;
39996;SDS011;25688;52.338;21.072;2024-02-21T13:18:24;39.42;;;17.77;;
39996;SDS011;25688;52.338;21.072;2024-02-21T13:20:50;45.13;;;21.88;;
39996;SDS011;25688;52.338;21.072;2024-02-21T13:23:16;50.88;;;23.88;;
39996;SDS011;25688;52.338;21.072;2024-02-21T13:25:42;58.40;;;24.85;;
39996;SDS011;25688;52.338;21.072;2024-02-21T13:28:09;54.35;;;25.83;;
39996;SDS011;25688;52.338;21.072;2024-02-21T13:30:35;51.50;;;24.48;;
39996;SDS011;25688;52.338;21.072;2024-02-21T13:33:01;56.60;;;24.80;;
39996;SDS011;25688;52.338;21.072;2024-02-21T13:35:28;60.05;;;27.13;;
39996;SDS011;25688;52.338;21.072;2024-02-21T13:37:54;48.15;;;22.42;;
39996;SDS011;25688;52.338;21.072;2024-02-21T13:40:19;48.17;;;21.25;;
39996;SDS011;25688;52.338;21.072;2024-02-21T13:42:45;44.97;;;21.45;;
39996;SDS011;25688;52.338;21.072;2024-02-21T13:45:11;53.72;;;22.70;;
39996;SDS011;25688;52.338;21.072;2024-02-21T13:47:37;49.85;;;22.65;;
39996;SDS011;25688;52.338;21.072;2024-02-21T13:50:04;51.25;;;22.02;;
39996;SDS011;25688;52.338;21.072;2024-02-21T13:52:34;51.20;;;24.67;;
39996;SDS011;25688;52.338;21.072;2024-02-21T13:55:00;49.60;;;23.70;;
39996;SDS011;25688;52.338;21.072;2024-02-21T13:57:26;52.25;;;22.55;;
39996;SDS011;25688;52.338;21.072;2024-02-21T13:59:51;51.22;;;21.60;;
39996;SDS011;25688;52.338;21.072;2024-02-21T14:02:17;53.22;;;20.88;;
39996;SDS011;25688;52.338;21.072;2024-02-21T14:04:43;44.58;;;19.88;;
39996;SDS011;25688;52.338;21.072;2024-02-21T14:07:09;43.60;;;19.55;;
39996;SDS011;25688;52.338;21.072;2024-02-21T14:09:35;47.22;;;19.60;;
39996;SDS011;25688;52.338;21.072;2024-02-21T14:12:01;42.95;;;19.73;;
39996;SDS011;25688;52.338;21.072;2024-02-21T14:14:27;43.20;;;20.00;;
39996;SDS011;25688;52.338;21.072;2024-02-21T14:16:53;40.92;;;17.50;;
39996;SDS011;25688;52.338;21.072;2024-02-21T14:19:18;40.70;;;18.02;;
39996;SDS011;25688;52.338;21.072;2024-02-21T14:21:44;39.55;;;18.30;;
39996;SDS011;25688;52.338;21.072;2024-02-21T14:24:10;42.08;;;18.67;;
39996;SDS011;25688;52.338;21.072;2024-02-21T14:26:37;34.63;;;17.42;;
39996;SDS011;25688;52.338;21.072;2024-02-21T14:29:06;41.30;;;17.65;;
39996;SDS011;25688;52.338;21.072;2024-02-21T14:31:33;34.38;;;16.98;;
39996;SDS011;25688;52.338;21.072;2024-02-21T14:33:58;38.25;;;16.90;;
39996;SDS011;25688;52.338;21.072;2024-02-21T14:36:25;37.63;;;18.30;;
39996;SDS011;25688;52.338;21.072;2024-02-21T14:38:51;38.47;;;16.70;;
39996;SDS011;25688;52.338;21.072;2024-02-21T14:41:17;40.83;;;18.73;;
39996;SDS011;25688;52.338;21.072;2024-02-21T14:43:43;36.58;;;18.15;;
39996;SDS011;25688;52.338;21.072;2024-02-21T14:46:09;36.38;;;17.17;;
39996;SDS011;25688;52.338;21.072;2024-02-21T14:48:37;34.60;;;16.30;;
39996;SDS011;25688;52.338;21.072;2024-02-21T14:51:03;38.15;;;16.13;;
39996;SDS011;25688;52.338;21.072;2024-02-21T14:53:29;39.35;;;16.15;;
39996;SDS011;25688;52.338;21.072;2024-02-21T14:55:56;33.20;;;15.48;;
39996;SDS011;25688;52.338;21.072;2024-02-21T14:58:25;34.08;;;14.75;;
39996;SDS011;25688;52.338;21.072;2024-02-21T15:00:52;43.47;;;16.02;;
39996;SDS011;25688;52.338;21.072;2024-02-21T15:03:19;30.98;;;14.38;;
39996;SDS011;25688;52.338;21.072;2024-02-21T15:05:45;34.88;;;14.65;;
39996;SDS011;25688;52.338;21.072;2024-02-21T15:08:11;35.17;;;15.40;;
39996;SDS011;25688;52.338;21.072;2024-02-21T15:10:37;31.98;;;14.05;;
39996;SDS011;25688;52.338;21.072;2024-02-21T15:13:03;32.95;;;15.32;;
39996;SDS011;25688;52.338;21.072;2024-02-21T15:15:29;30.58;;;14.80;;
39996;SDS011;25688;52.338;21.072;2024-02-21T15:17:55;30.23;;;14.75;;
39996;SDS011;25688;52.338;21.072;2024-02-21T15:20:21;28.08;;;14.63;;
39996;SDS011;25688;52.338;21.072;2024-02-21T15:22:47;33.50;;;16.42;;
39996;SDS011;25688;52.338;21.072;2024-02-21T15:25:13;32.40;;;14.63;;
39996;SDS011;25688;52.338;21.072;2024-02-21T15:27:45;38.92;;;16.10;;
39996;SDS011;25688;52.338;21.072;2024-02-21T15:30:11;34.92;;;15.35;;
39996;SDS011;25688;52.338;21.072;2024-02-21T15:32:38;33.10;;;14.52;;
39996;SDS011;25688;52.338;21.072;2024-02-21T15:35:05;30.13;;;14.88;;
39996;SDS011;25688;52.338;21.072;2024-02-21T15:37:34;31.33;;;13.75;;
39996;SDS011;25688;52.338;21.072;2024-02-21T15:40:00;28.83;;;13.15;;
39996;SDS011;25688;52.338;21.072;2024-02-21T15:42:26;28.75;;;14.88;;